Dearborn, MO

9:35 PM CST on February 05, 2016 (GMT -0600)
Clinton Estates | | Change Station
CLOSE
Current Station
Personal Weather Station
Location: Trimble, MO
Elevation: 975 ft
Nearby Weather Stations

Elev 975 ft 39.47 °N, 94.58 °W | Updated 29 seconds ago

Overcast
Overcast
34.4 °F
Feels Like 34 °F
N
0.0
Wind Variable Wind from East
Gusts 2.0 mph

Today
High -- | Low -- °F
--% Chance of Precip.
Yesterday
High -- | Low -- °F
Precip. -- in
Pressure 30.30 in
Visibility 10.0 miles
Clouds Overcast 10000 ft
Windchill 34 °F
Dew Point 26 °F
Humidity 71%
Rainfall 0.00 in
Snow Depth Not available.
7:22 AM 5:43 PM
Waning Crescent, 8% visible
METAR KMCI 060253Z 08003KT 10SM OVC100 02/M04 A3027 RMK AO2 SLP260 T00171039 50000
Pressure 30.30 in
Visibility 10.0 miles
Clouds Overcast 10000 ft
Windchill 34 °F
Dew Point 26 °F
Humidity 71%
Rainfall 0.00 in
Snow Depth Not available.
7:22 AM 5:43 PM
Waning Crescent, 8% visible
METAR KMCI 060253Z 08003KT 10SM OVC100 02/M04 A3027 RMK AO2 SLP260 T00171039 50000

10-Day Weather Forecast

Almanac

Astronomy

Feb. 05, 2016 Rise Set
Actual Time
Civil Twilight
Nautical Twilight
Astronomical Twilight
Moon
Length of Visible Light
Length of Day
Tomorrow will be .
, % of the Moon is Illuminated

Today's Extremes

State Highs State Lows

Community

WunderPhotos

Upload Photos

1,890,919 photos uploaded!

WunderBlog® & News

Nearby

Air Quality

  Air Quality AQ Index Pollutant
Not available.

Snow Depth

Station Depth Elevation

Earthquake Activity

City Distance Mag. Time & Date
Minimum magnitude displayed is 2.5.

Coastal Water Temperatures

Place Temperature

Stations

Nearby Weather Stations

Station Location Temp. Windchill Dew Point Humidity Wind Precip. Elev Updated Type
                   

Watches & Warnings

There are currently no watches in effect.